Terminal Aerodrome Forecast
Issued by NWS Grand Forks, ND

Home | Current Version | Previous Version | Graphics & Text | Print | Product List | Glossary On
Versions: 1 2 3 4 5 6 7 8 9 10 11 12 13 14 15 16 17 18 19 20
000
FTUS43 KFGF 231140
TAFFAR
TAF
KFAR 231140Z 2312/2412 15018KT P6SM BKN250
     FM231900 16010KT P6SM -RA OVC060
     FM232000 15009KT P6SM OVC035
     FM240000 12006KT P6SM OVC020
     FM240100 10005KT P6SM OVC020
     FM240300 02004KT P6SM OVC020
     FM241000 36010KT P6SM BKN015=

USA.gov is the U.S. government's official web portal to all federal, state and local government web resources and services.